createdAt,value
2023-01-21T10:07:08.279Z,11.77
2023-01-21T10:09:51.915Z,11.90
2023-01-21T10:12:45.341Z,11.80
2023-01-21T10:15:34.472Z,10.97
2023-01-21T10:18:04.843Z,11.50
2023-01-21T10:20:36.792Z,11.20
2023-01-21T10:23:12.398Z,12.70
2023-01-21T10:25:41.489Z,13.67
2023-01-21T10:28:16.433Z,11.43
2023-01-21T10:30:47.126Z,11.20
2023-01-21T10:33:19.587Z,11.93
2023-01-21T10:36:08.552Z,11.80
2023-01-21T10:38:45.422Z,11.17
2023-01-21T10:41:29.473Z,11.50
2023-01-21T10:44:07.153Z,12.13
2023-01-21T10:46:45.216Z,11.17
2023-01-21T10:49:26.678Z,10.20
2023-01-21T10:52:04.574Z,10.80
2023-01-21T10:54:46.001Z,11.03
2023-01-21T10:57:25.793Z,10.03
2023-01-21T10:59:54.848Z,10.00
2023-01-21T11:02:28.700Z,10.77
2023-01-21T11:04:58.180Z,9.87
2023-01-21T11:07:27.649Z,10.47
2023-01-21T11:09:56.896Z,10.47
2023-01-21T11:12:24.884Z,9.97
2023-01-21T11:14:57.763Z,10.57
2023-01-21T11:17:33.964Z,9.97
2023-01-21T11:20:03.664Z,11.07
2023-01-21T11:22:33.135Z,10.07
2023-01-21T11:25:03.474Z,9.50
2023-01-21T11:27:36.226Z,10.37
2023-01-21T11:30:15.642Z,10.77
2023-01-21T11:32:53.031Z,9.67
2023-01-21T11:35:23.128Z,9.67
2023-01-21T11:37:51.210Z,10.00
2023-01-21T11:40:25.105Z,9.77
2023-01-21T11:42:55.108Z,9.23
2023-01-21T11:45:29.373Z,9.97
2023-01-21T11:47:57.312Z,9.23
2023-01-21T11:50:29.796Z,10.17
2023-01-21T11:53:12.983Z,10.37
2023-01-21T11:55:43.686Z,9.50
2023-01-21T11:58:19.836Z,9.80
2023-01-21T12:00:50.708Z,9.87
2023-01-21T12:03:21.357Z,9.63
2023-01-21T12:05:50.610Z,9.27
2023-01-21T12:08:24.049Z,9.03
2023-01-21T12:10:55.855Z,9.97
2023-01-21T12:13:31.875Z,9.80
2023-01-21T12:16:17.174Z,10.27
2023-01-21T12:19:03.493Z,10.20
2023-01-21T12:21:45.466Z,9.83
2023-01-21T12:24:26.936Z,9.53
2023-01-21T12:27:03.985Z,10.37
2023-01-21T12:29:52.515Z,9.37
2023-01-21T12:32:24.669Z,9.23
2023-01-21T12:34:58.158Z,19.10
2023-01-21T12:37:34.284Z,15.20
2023-01-21T12:40:14.106Z,14.23
2023-01-21T12:42:48.887Z,20.63
2023-01-21T12:45:22.101Z,11.20
2023-01-21T12:47:55.655Z,9.40
2023-01-21T12:50:29.354Z,11.47
2023-01-21T12:53:06.371Z,9.83
2023-01-21T12:55:50.518Z,9.63
2023-01-21T12:58:22.932Z,8.77
2023-01-21T13:00:55.659Z,9.17
2023-01-21T13:03:30.986Z,9.20
2023-01-21T13:06:03.714Z,8.67
2023-01-21T13:08:45.498Z,8.27
2023-01-21T13:11:20.244Z,7.73
2023-01-21T13:13:54.077Z,8.57
2023-01-21T13:16:23.781Z,7.87
2023-01-21T13:18:54.371Z,7.93
2023-01-21T13:21:32.098Z,8.00
2023-01-21T13:24:12.039Z,7.67
2023-01-21T13:26:47.931Z,7.60
2023-01-21T13:29:26.444Z,7.33
2023-01-21T13:32:14.195Z,7.10
2023-01-21T13:34:52.657Z,7.73
2023-01-21T13:37:32.889Z,8.27
2023-01-21T13:40:20.074Z,8.30
2023-01-21T13:42:58.046Z,8.63
2023-01-21T13:45:36.627Z,8.37
2023-01-21T13:48:28.577Z,10.33
2023-01-21T13:51:08.804Z,8.37
2023-01-21T13:53:48.517Z,9.50
2023-01-21T13:56:33.399Z,7.73
2023-01-21T13:59:05.452Z,8.30
2023-01-21T14:01:44.307Z,9.87
2023-01-21T14:04:16.607Z,8.90
2023-01-21T14:06:53.034Z,9.50
2023-01-21T14:09:27.079Z,8.90
2023-01-21T14:11:59.849Z,8.23
2023-01-21T14:14:59.492Z,9.20
2023-01-21T14:17:48.088Z,8.17
2023-01-21T14:20:33.000Z,8.80
2023-01-21T14:23:27.996Z,8.73
2023-01-21T14:26:10.582Z,8.20
2023-01-21T14:28:48.993Z,7.40
2023-01-21T14:31:22.305Z,8.30
2023-01-21T14:33:57.143Z,8.63
2023-01-21T14:36:40.230Z,7.87
2023-01-21T14:39:21.049Z,7.97
2023-01-21T14:41:56.321Z,7.37
2023-01-21T14:44:44.411Z,6.97
2023-01-21T14:47:17.588Z,7.03
2023-01-21T14:49:49.501Z,7.47
2023-01-21T14:52:19.265Z,8.00
2023-01-21T14:54:47.880Z,7.43
2023-01-21T14:57:25.777Z,7.40
2023-01-21T14:59:56.116Z,7.80
2023-01-21T15:02:30.714Z,7.20
2023-01-21T15:05:01.605Z,7.70
2023-01-21T15:07:31.729Z,7.80
2023-01-21T15:10:02.469Z,7.97
2023-01-21T15:12:33.385Z,9.00
2023-01-21T15:15:03.122Z,7.33
2023-01-21T15:18:03.252Z,6.90
2023-01-21T15:20:47.151Z,6.83
2023-01-21T15:23:39.934Z,7.20
2023-01-21T15:26:33.047Z,6.60
2023-01-21T15:29:33.478Z,7.43
2023-01-21T15:32:21.998Z,6.30
2023-01-21T15:34:54.141Z,6.80
2023-01-21T15:37:25.074Z,6.43
2023-01-21T15:39:57.579Z,6.10
2023-01-21T15:42:33.743Z,7.27
2023-01-21T15:45:12.843Z,7.17
2023-01-21T15:47:54.929Z,7.50
2023-01-21T15:50:26.035Z,7.43
2023-01-21T15:53:06.714Z,6.90
2023-01-21T15:55:52.082Z,7.30
2023-01-21T15:58:26.954Z,6.63
2023-01-21T16:01:07.176Z,7.57
2023-01-21T16:03:43.834Z,6.80
2023-01-21T16:06:28.210Z,6.30
2023-01-21T16:09:06.200Z,6.30
2023-01-21T16:12:00.782Z,6.90
2023-01-21T16:14:43.903Z,6.87
2023-01-21T16:17:19.311Z,6.87
2023-01-21T16:19:53.490Z,6.80
2023-01-21T16:22:24.737Z,7.30
2023-01-21T16:24:58.796Z,7.00
2023-01-21T16:27:31.026Z,6.27
2023-01-21T16:29:59.618Z,6.60
2023-01-21T16:32:27.805Z,6.97
2023-01-21T16:34:55.572Z,7.87
2023-01-21T16:37:25.494Z,6.97
2023-01-21T16:39:57.679Z,7.50
2023-01-21T16:42:30.090Z,6.90
2023-01-21T16:44:59.777Z,7.63
2023-01-21T16:47:36.969Z,7.20
2023-01-21T16:50:06.391Z,7.57
2023-01-21T16:52:34.211Z,8.67
2023-01-21T16:55:03.312Z,8.90
2023-01-21T16:57:32.488Z,7.80
2023-01-21T17:00:23.207Z,7.77
2023-01-21T17:02:55.936Z,7.60
2023-01-21T17:05:25.376Z,7.50
2023-01-21T17:07:56.810Z,7.80
2023-01-21T17:10:30.535Z,7.73
2023-01-21T17:13:01.746Z,7.30
2023-01-21T17:15:35.995Z,7.53
2023-01-21T17:18:13.281Z,7.70
2023-01-21T17:20:51.936Z,7.67
2023-01-21T17:23:32.526Z,7.40
2023-01-21T17:26:05.302Z,8.67
2023-01-21T17:28:39.065Z,9.40
2023-01-21T17:31:23.132Z,7.97
2023-01-21T17:34:06.148Z,7.97
2023-01-21T17:36:35.501Z,8.20
2023-01-21T17:39:04.036Z,7.73
2023-01-21T17:41:37.437Z,7.60
2023-01-21T17:44:07.919Z,7.87
2023-01-21T17:46:35.860Z,7.90
2023-01-21T17:49:08.302Z,8.70
2023-01-21T17:51:36.617Z,8.00
2023-01-21T17:54:07.158Z,7.67
2023-01-21T17:56:38.807Z,8.37
2023-01-21T18:05:06.931Z,7.83
2023-01-21T18:07:37.836Z,8.20
2023-01-21T18:10:14.322Z,8.67
2023-01-21T18:12:48.540Z,8.60
2023-01-21T18:15:19.742Z,8.00
2023-01-21T18:17:50.700Z,7.90
2023-01-21T18:20:25.815Z,18.83
2023-01-21T18:22:54.883Z,9.17
2023-01-21T18:25:24.256Z,9.57
2023-01-21T18:27:55.343Z,9.47
2023-01-21T18:30:27.002Z,9.17
2023-01-21T18:32:55.658Z,9.17
2023-01-21T18:35:28.345Z,9.37
2023-01-21T18:37:56.266Z,8.53
2023-01-21T18:40:24.811Z,8.90
2023-01-21T18:42:55.478Z,9.47
2023-01-21T18:45:27.061Z,9.27
2023-01-21T18:47:55.969Z,8.53
2023-01-21T18:50:25.593Z,8.90
2023-01-21T18:52:53.855Z,9.37
2023-01-21T18:55:22.533Z,8.13
2023-01-21T18:57:51.360Z,8.97
2023-01-21T19:00:23.988Z,9.00
2023-01-21T19:02:53.870Z,8.90
2023-01-21T19:05:22.953Z,9.83
2023-01-21T19:07:50.736Z,9.17
2023-01-21T19:10:20.619Z,8.97
2023-01-21T19:12:49.061Z,9.80
2023-01-21T19:15:19.371Z,10.20
2023-01-21T19:17:49.268Z,8.83
2023-01-21T19:20:19.072Z,9.57
2023-01-21T19:23:15.730Z,9.57
2023-01-21T19:25:45.483Z,9.53
2023-01-21T19:28:15.447Z,10.03
2023-01-21T19:30:45.089Z,8.77
2023-01-21T19:33:18.264Z,9.20
2023-01-21T19:35:47.769Z,8.40
2023-01-21T19:38:28.075Z,8.73
2023-01-21T19:40:56.722Z,9.20
2023-01-21T19:43:24.665Z,8.40
2023-01-21T19:45:53.859Z,9.67
2023-01-21T19:48:33.251Z,10.37
2023-01-21T19:51:01.372Z,9.43
2023-01-21T19:53:29.259Z,10.60
2023-01-21T19:55:57.364Z,10.53
2023-01-21T19:58:28.540Z,10.60
2023-01-21T20:00:56.457Z,9.63
2023-01-21T20:03:27.844Z,8.80
2023-01-21T20:06:01.398Z,9.17
2023-01-21T20:08:31.157Z,8.83
2023-01-21T20:10:59.005Z,9.60
2023-01-21T20:13:31.093Z,9.47
2023-01-21T20:16:03.634Z,9.40
2023-01-21T20:18:33.400Z,9.07
2023-01-21T20:21:02.695Z,9.77
2023-01-21T20:23:32.562Z,10.10
2023-01-21T20:26:00.880Z,9.30
2023-01-21T20:28:37.065Z,9.50
2023-01-21T20:31:08.634Z,10.43
2023-01-21T20:33:37.606Z,9.33
2023-01-21T20:36:15.047Z,9.47
2023-01-21T20:38:43.112Z,10.23
2023-01-21T20:41:12.772Z,9.47
2023-01-21T20:43:41.445Z,10.33
2023-01-21T20:46:16.461Z,9.83
2023-01-21T20:48:45.946Z,9.33
2023-01-21T20:51:15.685Z,10.20
2023-01-21T20:53:43.832Z,9.73
2023-01-21T20:56:21.414Z,9.37
2023-01-21T20:58:49.858Z,9.63
2023-01-21T21:01:20.161Z,9.50
2023-01-21T21:03:48.295Z,15.30
2023-01-21T21:06:19.659Z,11.70
2023-01-21T21:08:48.076Z,10.57
2023-01-21T21:11:17.687Z,10.07
2023-01-21T21:13:48.343Z,9.80
2023-01-21T21:16:22.710Z,10.57
2023-01-21T21:18:54.836Z,10.50
2023-01-21T21:21:26.140Z,10.60
2023-01-21T21:23:56.380Z,11.00
2023-01-21T21:26:26.586Z,9.63
2023-01-21T21:28:57.853Z,10.17
2023-01-21T21:31:32.699Z,10.17
2023-01-21T21:34:00.851Z,10.27
2023-01-21T21:36:30.188Z,10.47
2023-01-21T21:38:58.523Z,10.93
2023-01-21T21:41:44.933Z,10.30
2023-01-21T21:44:14.097Z,9.47
2023-01-21T21:46:59.960Z,10.17
2023-01-21T21:49:28.106Z,9.67
2023-01-21T21:51:59.754Z,10.27
2023-01-21T21:54:28.203Z,10.23
2023-01-21T21:56:57.332Z,9.67
2023-01-21T21:59:26.415Z,10.47
2023-01-21T22:01:54.357Z,9.40
2023-01-21T22:04:23.646Z,9.30
2023-01-21T22:06:52.177Z,9.53
2023-01-21T22:09:21.750Z,9.73
2023-01-21T22:11:49.553Z,9.53
2023-01-21T22:14:18.966Z,10.33
2023-01-21T22:16:49.110Z,9.97
2023-01-21T22:19:20.033Z,8.57
2023-01-21T22:21:50.396Z,10.77
2023-01-21T22:24:19.079Z,10.50
2023-01-21T22:26:48.287Z,10.97
2023-01-21T22:29:16.164Z,10.20
2023-01-21T22:31:44.303Z,11.57
2023-01-21T22:34:12.684Z,11.20
2023-01-21T22:36:42.056Z,11.87
2023-01-21T22:39:09.912Z,10.70
2023-01-21T22:41:37.864Z,10.10
2023-01-21T22:44:07.167Z,10.03
2023-01-21T22:46:34.965Z,10.07
2023-01-21T22:49:02.869Z,9.77
2023-01-21T22:51:31.467Z,10.07
2023-01-21T22:54:00.141Z,10.37
2023-01-21T22:56:49.681Z,10.53
2023-01-21T22:59:17.306Z,9.93
2023-01-21T23:01:45.198Z,10.60
2023-01-21T23:04:13.089Z,10.67
2023-01-21T23:06:40.946Z,9.60
2023-01-21T23:09:11.217Z,10.10
2023-01-21T23:11:41.626Z,10.33
2023-01-21T23:14:10.722Z,10.97
2023-01-21T23:16:40.737Z,10.13
2023-01-21T23:19:08.569Z,10.50
2023-01-21T23:21:37.649Z,10.30
2023-01-21T23:24:06.189Z,10.20
2023-01-21T23:26:34.975Z,10.37
2023-01-21T23:29:03.231Z,10.50
2023-01-21T23:31:31.337Z,9.93
2023-01-21T23:34:00.744Z,11.10
2023-01-21T23:36:29.083Z,10.20
2023-01-21T23:38:57.021Z,10.77
2023-01-21T23:41:24.820Z,9.93
2023-01-21T23:43:52.635Z,10.63
2023-01-21T23:46:20.694Z,9.83
2023-01-21T23:48:48.663Z,10.50
2023-01-21T23:51:19.071Z,10.30
2023-01-21T23:53:47.733Z,10.10
2023-01-21T23:56:18.982Z,10.07
2023-01-21T23:58:46.816Z,9.60
